Time;durP1;ratioP1;P1;durP2;ratioP2;P2;SDS_P1;SDS_P2;PMS_P1;PMS_P2;Temp;Humidity;BMP_temperature;BMP_pressure;BME280_temperature;BME280_humidity;BME280_pressure;Samples;Min_cycle;Max_cycle;Signal;HPM_P1;HPM_P2
2022/06/01 00:01:22;;;;;;;9.38;5.68;;;12.10;99.90;;;;;;5032109;28;20037;-67
2022/06/01 00:03:48;;;;;;;;;;;12.10;99.90;;;;;;5050155;28;20314;-67
2022/06/01 00:06:14;;;;;;;8.05;5.38;;;12.10;99.90;;;;;;5031197;28;19931;-68
2022/06/01 00:08:40;;;;;;;12.32;5.60;;;12.10;99.90;;;;;;5048104;28;20041;-70
2022/06/01 00:11:07;;;;;;;8.02;5.68;;;12.10;99.90;;;;;;5045067;28;20113;-67
2022/06/01 00:13:33;;;;;;;8.93;5.65;;;12.10;99.90;;;;;;5009908;28;20047;-67
2022/06/01 00:15:59;;;;;;;8.70;5.70;;;12.10;99.90;;;;;;5013640;28;20033;-67
2022/06/01 00:18:24;;;;;;;7.75;5.47;;;12.10;99.90;;;;;;5031850;28;20497;-67
2022/06/01 00:20:51;;;;;;;8.43;5.43;;;12.10;99.90;;;;;;5046375;28;20028;-67
2022/06/01 00:23:18;;;;;;;8.02;5.38;;;12.10;99.90;;;;;;5027262;28;20124;-71
2022/06/01 00:25:44;;;;;;;11.00;5.72;;;12.10;99.90;;;;;;5045218;28;20047;-68
2022/06/01 00:28:10;;;;;;;12.70;6.03;;;12.10;99.90;;;;;;5050378;28;20040;-68
2022/06/01 00:30:36;;;;;;;9.85;6.22;;;12.10;99.90;;;;;;5048425;28;20490;-67
2022/06/01 00:33:02;;;;;;;11.73;6.30;;;12.10;99.90;;;;;;5049281;28;20132;-69
2022/06/01 00:35:28;;;;;;;13.55;6.50;;;12.10;99.90;;;;;;5048744;28;20059;-67
2022/06/01 00:37:57;;;;;;;11.88;6.18;;;12.10;99.90;;;;;;5046590;28;20036;-67
2022/06/01 00:40:26;;;;;;;9.23;6.30;;;12.10;99.90;;;;;;5028777;28;20063;-67
2022/06/01 00:42:54;;;;;;;13.15;6.45;;;12.10;99.90;;;;;;5047144;28;20063;-67
2022/06/01 00:45:24;;;;;;;8.98;6.20;;;12.10;99.90;;;;;;5044893;28;20037;-67
2022/06/01 00:47:50;;;;;;;9.60;6.70;;;12.10;99.90;;;;;;5019172;28;20127;-67
2022/06/01 00:50:21;;;;;;;11.18;6.55;;;12.20;99.90;;;;;;5029902;28;20087;-67
2022/06/01 00:52:53;;;;;;;9.77;6.68;;;12.10;99.90;;;;;;5047915;28;20036;-67
2022/06/01 00:55:24;;;;;;;8.73;5.68;;;12.10;99.90;;;;;;5049231;28;20217;-68
2022/06/01 00:57:57;;;;;;;9.57;6.80;;;12.20;99.90;;;;;;5040877;28;20044;-68
2022/06/01 01:00:25;;;;;;;10.73;6.47;;;12.10;99.90;;;;;;5043469;28;20405;-67
2022/06/01 01:02:55;;;;;;;11.88;7.40;;;12.20;99.90;;;;;;5046480;28;20029;-68
2022/06/01 01:05:22;;;;;;;8.35;5.35;;;12.20;99.90;;;;;;5045762;28;20459;-67
2022/06/01 01:07:51;;;;;;;10.77;6.68;;;12.20;99.90;;;;;;5046891;28;20040;-67
2022/06/01 01:10:17;;;;;;;10.50;6.13;;;12.20;99.90;;;;;;5047251;28;20072;-67
2022/06/01 01:12:57;;;;;;;9.95;6.43;;;12.20;99.90;;;;;;5044642;28;20548;-67
2022/06/01 01:15:37;;;;;;;12.70;6.53;;;12.10;99.90;;;;;;5037903;28;20067;-68
2022/06/01 01:18:10;;;;;;;9.23;6.25;;;12.20;99.90;;;;;;5026999;28;20243;-68
2022/06/01 01:21:22;;;;;;;12.85;7.47;;;12.20;99.90;;;;;;5029086;28;20434;-68
2022/06/01 01:24:15;;;;;;;9.55;6.50;;;12.20;99.90;;;;;;5029701;28;20144;-67
2022/06/01 01:29:13;;;;;;;10.68;7.38;;;12.20;99.90;;;;;;5037313;28;20072;-67
2022/06/01 01:31:40;;;;;;;12.27;7.38;;;12.10;99.90;;;;;;5027181;28;20106;-67
2022/06/01 01:34:06;;;;;;;10.82;7.18;;;12.10;99.90;;;;;;5046189;28;20079;-67
2022/06/01 01:36:36;;;;;;;11.18;7.30;;;12.10;99.90;;;;;;5008698;28;20496;-67
2022/06/01 01:39:07;;;;;;;11.95;7.80;;;12.10;99.90;;;;;;5025529;28;20500;-67
2022/06/01 01:41:38;;;;;;;11.48;7.38;;;12.10;99.90;;;;;;5042372;28;20824;-67
2022/06/01 01:44:22;;;;;;;11.85;8.25;;;12.10;99.90;;;;;;5001748;28;20489;-67
2022/06/01 01:46:49;;;;;;;11.18;7.82;;;12.10;99.90;;;;;;5017923;28;20132;-67
2022/06/01 01:49:17;;;;;;;11.45;7.55;;;12.10;99.90;;;;;;5043597;28;20120;-66
2022/06/01 01:51:43;;;;;;;10.75;7.50;;;12.00;99.90;;;;;;5044371;28;20048;-67
2022/06/01 01:54:36;;;;;;;10.88;8.00;;;12.10;99.90;;;;;;5024040;28;20057;-67
2022/06/01 01:57:22;;;;;;;11.80;7.53;;;12.00;99.90;;;;;;5043748;28;20116;-67
2022/06/01 02:00:15;;;;;;;10.75;7.15;;;12.00;99.90;;;;;;5041121;28;20110;-67
2022/06/01 02:03:05;;;;;;;12.32;7.70;;;11.90;99.90;;;;;;5013090;28;20059;-67
2022/06/01 02:06:04;;;;;;;12.57;7.97;;;11.90;99.90;;;;;;5022919;28;20048;-67
2022/06/01 02:08:41;;;;;;;8.82;6.57;;;11.90;99.90;;;;;;5035302;28;20041;-67
2022/06/01 02:14:03;;;;;;;10.90;7.30;;;11.90;99.90;;;;;;5028607;28;20052;-67
2022/06/01 02:16:34;;;;;;;10.38;7.30;;;11.80;99.90;;;;;;5031176;28;20029;-67
2022/06/01 02:19:02;;;;;;;11.05;7.43;;;11.80;99.90;;;;;;5039352;28;20459;-67
2022/06/01 02:21:28;;;;;;;12.00;7.65;;;11.80;99.90;;;;;;5010739;28;20262;-67
2022/06/01 02:23:58;;;;;;;10.00;6.78;;;11.80;99.90;;;;;;5015310;28;20052;-67
2022/06/01 02:26:23;;;;;;;11.43;7.22;;;11.80;99.90;;;;;;5039077;28;20083;-67
2022/06/01 02:28:52;;;;;;;12.67;7.73;;;11.70;99.90;;;;;;5040630;28;20041;-67
2022/06/01 02:31:19;;;;;;;11.00;7.60;;;11.70;99.90;;;;;;5041011;28;20542;-67
2022/06/01 02:33:48;;;;;;;10.57;6.97;;;11.70;99.90;;;;;;5028059;28;20457;-67
2022/06/01 02:36:17;;;;;;;15.13;8.25;;;11.60;99.90;;;;;;5045750;28;20040;-68
2022/06/01 02:38:47;;;;;;;10.50;7.38;;;11.60;99.90;;;;;;5030766;28;20064;-67
2022/06/01 02:43:57;;;;;;;10.48;7.05;;;11.50;99.90;;;;;;5038533;28;20044;-68
2022/06/01 02:46:24;;;;;;;11.75;7.00;;;11.50;99.90;;;;;;5032173;28;20043;-67
2022/06/01 02:48:50;;;;;;;10.88;7.55;;;11.50;99.90;;;;;;5019222;28;20040;-67
2022/06/01 02:51:18;;;;;;;14.10;7.38;;;11.40;99.90;;;;;;5043948;28;20092;-68
2022/06/01 02:53:45;;;;;;;11.13;7.75;;;11.40;99.90;;;;;;5042496;28;20454;-67
2022/06/01 02:56:11;;;;;;;12.63;8.10;;;11.40;99.90;;;;;;5031538;28;20401;-67
2022/06/01 02:58:37;;;;;;;9.65;6.93;;;11.40;99.90;;;;;;5025477;28;20044;-67
2022/06/01 03:01:03;;;;;;;13.82;7.75;;;11.40;99.90;;;;;;5021046;28;20116;-67
2022/06/01 03:03:30;;;;;;;9.48;6.80;;;11.40;99.90;;;;;;5046815;28;20055;-67
2022/06/01 03:05:55;;;;;;;;;;;11.40;99.90;;;;;;5019432;28;20456;-67
2022/06/01 03:08:21;;;;;;;11.05;6.97;;;11.30;99.90;;;;;;5042294;28;19948;-67
2022/06/01 03:10:48;;;;;;;12.75;7.50;;;11.30;99.90;;;;;;5042661;28;20048;-67
2022/06/01 03:13:15;;;;;;;11.07;7.90;;;11.30;99.90;;;;;;5042434;28;20045;-67
2022/06/01 03:15:41;;;;;;;10.68;7.35;;;11.30;99.90;;;;;;5038781;28;20037;-67
2022/06/01 03:18:07;;;;;;;12.27;8.20;;;11.20;99.90;;;;;;5045954;28;20316;-67
2022/06/01 03:20:34;;;;;;;14.10;8.43;;;11.20;99.90;;;;;;5044533;28;20666;-67
2022/06/01 03:23:01;;;;;;;12.73;8.35;;;11.20;99.90;;;;;;5011329;28;20838;-67
2022/06/01 03:25:28;;;;;;;12.10;7.55;;;11.20;99.90;;;;;;5044465;28;20041;-67
2022/06/01 03:27:59;;;;;;;14.13;9.07;;;11.20;99.90;;;;;;5044129;28;20444;-67
2022/06/01 03:30:26;;;;;;;12.23;8.65;;;11.20;99.90;;;;;;5039161;28;20049;-67
2022/06/01 03:32:52;;;;;;;13.50;8.88;;;11.20;99.90;;;;;;5046728;28;20036;-67
2022/06/01 03:35:21;;;;;;;14.45;9.00;;;11.20;99.90;;;;;;5040915;28;20461;-67
2022/06/01 03:37:48;;;;;;;13.57;8.88;;;11.20;99.90;;;;;;5024208;28;20051;-68
2022/06/01 03:40:15;;;;;;;12.10;8.30;;;11.20;99.90;;;;;;5027424;28;20052;-68
2022/06/01 03:42:41;;;;;;;14.75;9.20;;;11.20;99.90;;;;;;5043307;28;20079;-67
2022/06/01 03:47:55;;;;;;;13.52;9.10;;;11.20;99.90;;;;;;5023729;28;20037;-67
2022/06/01 03:50:22;;;;;;;12.85;9.07;;;11.30;99.90;;;;;;5037699;28;20037;-67
2022/06/01 03:52:47;;;;;;;;;;;11.30;99.90;;;;;;5022977;28;20424;-67
2022/06/01 03:55:14;;;;;;;15.32;9.65;;;11.30;99.90;;;;;;5038993;28;19959;-67
2022/06/01 03:57:43;;;;;;;14.15;8.73;;;11.40;99.90;;;;;;5026898;28;20037;-67
2022/06/01 04:00:12;;;;;;;14.35;8.82;;;11.30;99.90;;;;;;5037499;28;20044;-68
2022/06/01 04:02:39;;;;;;;14.75;8.98;;;11.40;99.90;;;;;;5044599;28;20435;-67
2022/06/01 04:05:05;;;;;;;12.80;9.30;;;11.40;99.90;;;;;;5042815;28;20041;-67
2022/06/01 04:07:31;;;;;;;16.88;9.30;;;11.40;99.90;;;;;;5027109;28;20512;-67
2022/06/01 04:09:56;;;;;;;13.60;8.40;;;11.40;99.90;;;;;;5041587;28;20044;-67
2022/06/01 04:12:22;;;;;;;12.93;8.67;;;11.40;99.90;;;;;;5012014;28;20026;-67
2022/06/01 04:14:48;;;;;;;15.23;9.18;;;11.50;99.90;;;;;;5032992;28;20851;-67
2022/06/01 04:17:14;;;;;;;12.57;9.05;;;11.50;99.90;;;;;;5034705;28;20525;-67
2022/06/01 04:19:40;;;;;;;13.13;8.35;;;11.50;99.90;;;;;;5035271;28;20041;-67
2022/06/01 04:22:08;;;;;;;14.73;8.67;;;11.50;99.90;;;;;;5024018;28;20044;-67
2022/06/01 04:24:34;;;;;;;15.45;9.05;;;11.60;99.90;;;;;;5022405;28;20118;-67
2022/06/01 04:27:00;;;;;;;;;;;11.60;99.90;;;;;;5024014;28;20542;-67
2022/06/01 04:29:25;;;;;;;14.27;8.00;;;11.60;99.90;;;;;;5025972;28;19925;-67
2022/06/01 04:31:59;;;;;;;15.03;9.47;;;11.60;99.90;;;;;;5020672;28;20084;-67
2022/06/01 04:34:25;;;;;;;12.60;8.50;;;11.60;99.90;;;;;;5007740;28;20081;-67
2022/06/01 04:36:52;;;;;;;14.60;9.15;;;11.60;99.90;;;;;;5022678;28;20320;-68
2022/06/01 04:39:18;;;;;;;14.00;8.43;;;11.60;99.90;;;;;;5043641;28;20131;-67
2022/06/01 04:41:43;;;;;;;12.02;8.25;;;11.60;99.90;;;;;;5035421;28;20486;-68
2022/06/01 04:44:09;;;;;;;12.37;8.73;;;11.50;99.90;;;;;;5035730;28;20446;-67
2022/06/01 04:46:36;;;;;;;12.97;8.00;;;11.60;99.90;;;;;;5031927;28;20081;-67
2022/06/01 04:49:02;;;;;;;12.68;7.65;;;11.60;99.90;;;;;;5019741;28;20106;-67
2022/06/01 04:51:28;;;;;;;13.38;8.02;;;11.60;99.90;;;;;;5020854;28;20044;-67
2022/06/01 04:53:53;;;;;;;12.73;8.43;;;11.50;99.90;;;;;;5042312;28;20289;-67
2022/06/01 04:56:19;;;;;;;15.27;8.80;;;11.60;99.90;;;;;;5016142;28;20561;-67
2022/06/01 04:58:45;;;;;;;12.27;8.23;;;11.60;99.90;;;;;;5044409;28;20517;-67
2022/06/01 05:01:11;;;;;;;11.00;7.73;;;11.50;99.90;;;;;;5022715;28;20045;-69
2022/06/01 05:03:36;;;;;;;12.57;8.43;;;11.50;99.90;;;;;;5019929;28;20056;-68
2022/06/01 05:06:02;;;;;;;11.73;8.45;;;11.60;99.90;;;;;;5019746;28;20041;-68
2022/06/01 05:08:28;;;;;;;12.17;7.83;;;11.50;99.90;;;;;;5046239;28;20121;-69
2022/06/01 05:10:54;;;;;;;11.77;8.23;;;11.50;99.90;;;;;;5024572;28;20802;-68
2022/06/01 05:13:20;;;;;;;12.75;8.10;;;11.50;99.90;;;;;;5007171;28;20048;-67
2022/06/01 05:15:51;;;;;;;11.80;7.60;;;11.50;99.90;;;;;;5031838;28;20086;-68
2022/06/01 05:18:17;;;;;;;12.82;8.18;;;11.50;99.90;;;;;;5041092;28;20247;-67
2022/06/01 05:20:43;;;;;;;11.73;7.70;;;11.50;99.90;;;;;;5027615;28;20687;-66
2022/06/01 05:23:09;;;;;;;13.10;8.57;;;11.50;99.90;;;;;;5037795;28;20368;-70
2022/06/01 05:25:35;;;;;;;11.45;8.52;;;11.40;99.90;;;;;;5016281;28;20461;-66
2022/06/01 05:28:00;;;;;;;14.90;9.25;;;11.40;99.90;;;;;;5038650;28;20040;-70
2022/06/01 05:30:29;;;;;;;12.77;8.53;;;11.40;99.90;;;;;;5042811;28;20094;-69
2022/06/01 05:32:55;;;;;;;12.25;7.70;;;11.40;99.90;;;;;;5022331;28;20065;-70
2022/06/01 05:35:20;;;;;;;10.43;7.50;;;11.50;99.90;;;;;;5040255;28;20061;-67
2022/06/01 05:37:46;;;;;;;14.27;9.18;;;11.50;99.90;;;;;;5027284;28;20041;-66
2022/06/01 05:40:12;;;;;;;15.57;8.53;;;11.50;99.90;;;;;;5034299;28;20041;-66
2022/06/01 05:42:38;;;;;;;12.10;7.18;;;11.50;99.90;;;;;;5025029;28;20052;-67
2022/06/01 05:45:04;;;;;;;12.13;8.00;;;11.50;99.90;;;;;;5042716;28;20037;-66
2022/06/01 05:47:30;;;;;;;12.38;8.25;;;11.50;99.90;;;;;;5022426;28;20392;-66
2022/06/01 05:49:56;;;;;;;9.25;7.00;;;11.50;99.90;;;;;;5019286;28;20138;-66
2022/06/01 05:52:21;;;;;;;11.23;7.32;;;11.60;99.90;;;;;;5020087;28;20037;-66
2022/06/01 05:54:47;;;;;;;12.67;7.90;;;11.60;99.90;;;;;;5022398;28;20059;-67
2022/06/01 05:57:14;;;;;;;10.90;7.10;;;11.70;99.90;;;;;;5023621;28;20843;-67
2022/06/01 05:59:40;;;;;;;10.30;6.57;;;11.70;99.90;;;;;;5039797;28;20037;-67
2022/06/01 06:02:06;;;;;;;11.73;7.45;;;11.70;99.90;;;;;;5045394;28;20367;-67
2022/06/01 06:04:32;;;;;;;10.75;6.75;;;11.80;99.90;;;;;;5043751;28;20084;-66
2022/06/01 06:07:00;;;;;;;9.97;7.13;;;11.80;99.90;;;;;;5026781;28;20077;-66
2022/06/01 06:09:26;;;;;;;9.35;6.70;;;11.90;99.90;;;;;;5044325;28;20033;-66
2022/06/01 06:11:52;;;;;;;10.43;6.78;;;12.00;99.90;;;;;;5038288;28;20044;-67
2022/06/01 06:14:18;;;;;;;12.48;7.03;;;12.00;99.90;;;;;;5013364;28;20268;-66
2022/06/01 06:16:45;;;;;;;10.35;6.60;;;12.00;99.90;;;;;;5015329;28;20044;-67
2022/06/01 06:19:12;;;;;;;9.65;6.30;;;12.10;99.90;;;;;;5030503;28;20378;-67
2022/06/01 06:21:42;;;;;;;12.02;6.43;;;12.10;99.90;;;;;;5038488;28;20037;-67
2022/06/01 06:24:14;;;;;;;12.10;7.32;;;12.20;99.90;;;;;;5048789;28;20452;-67
2022/06/01 06:26:42;;;;;;;10.18;6.63;;;12.30;99.90;;;;;;5032091;28;20036;-66
2022/06/01 06:29:10;;;;;;;12.55;7.32;;;12.30;99.90;;;;;;5046863;28;20052;-67
2022/06/01 06:31:37;;;;;;;11.85;7.93;;;12.40;99.90;;;;;;5025187;28;20071;-67
2022/06/01 06:34:03;;;;;;;11.57;7.88;;;12.60;99.90;;;;;;5048705;28;20055;-67
2022/06/01 06:36:29;;;;;;;14.15;8.25;;;12.60;99.90;;;;;;5026609;28;20509;-66
2022/06/01 06:38:55;;;;;;;12.05;7.60;;;12.60;99.90;;;;;;5048788;28;20044;-67
2022/06/01 06:41:21;;;;;;;12.95;7.78;;;12.70;99.90;;;;;;5022887;28;20075;-67
2022/06/01 06:43:47;;;;;;;10.73;7.35;;;12.70;99.90;;;;;;5030480;28;20260;-66
2022/06/01 06:46:17;;;;;;;11.18;7.57;;;12.80;99.90;;;;;;5046367;28;20105;-66
2022/06/01 06:48:45;;;;;;;12.32;7.43;;;12.90;99.90;;;;;;5045116;28;20040;-66
2022/06/01 06:51:12;;;;;;;11.05;7.53;;;12.80;99.90;;;;;;5028052;28;20051;-67
2022/06/01 06:53:39;;;;;;;13.10;7.15;;;12.90;99.90;;;;;;5047855;28;20072;-67
2022/06/01 06:56:04;;;;;;;11.40;6.72;;;13.00;99.90;;;;;;5024990;28;20051;-67
2022/06/01 06:58:32;;;;;;;9.90;6.70;;;13.00;99.90;;;;;;5021909;28;20041;-67
2022/06/01 07:00:58;;;;;;;11.95;7.35;;;13.00;99.90;;;;;;5045651;28;20045;-67
2022/06/01 07:03:24;;;;;;;11.55;7.45;;;13.00;99.90;;;;;;5030732;28;20039;-67
2022/06/01 07:06:09;;;;;;;11.85;8.05;;;13.00;99.90;;;;;;5019147;28;20178;-67
2022/06/01 07:08:46;;;;;;;10.93;7.80;;;13.00;99.90;;;;;;5037800;28;20047;-67
2022/06/01 07:11:14;;;;;;;12.20;7.43;;;13.00;99.90;;;;;;5020735;28;20037;-66
2022/06/01 07:13:39;;;;;;;10.63;7.28;;;13.10;99.90;;;;;;5031403;28;20160;-67
2022/06/01 07:16:11;;;;;;;12.05;7.50;;;13.10;99.90;;;;;;5018728;28;20124;-67
2022/06/01 07:18:39;;;;;;;9.93;7.20;;;13.10;99.90;;;;;;5041646;28;20064;-67
2022/06/01 07:21:05;;;;;;;10.98;7.22;;;13.10;99.90;;;;;;5025476;28;20036;-67
2022/06/01 07:23:31;;;;;;;11.05;7.47;;;13.10;99.90;;;;;;5027702;28;20078;-67
2022/06/01 07:25:57;;;;;;;11.82;7.50;;;13.10;99.90;;;;;;5036542;28;20041;-67
2022/06/01 07:28:23;;;;;;;12.27;6.82;;;13.10;99.90;;;;;;5018633;28;20041;-67
2022/06/01 07:31:01;;;;;;;;;;;13.20;99.90;;;;;;5028485;28;20442;-67
2022/06/01 07:33:29;;;;;;;9.77;6.07;;;13.20;99.90;;;;;;5023770;28;19917;-67
2022/06/01 07:35:56;;;;;;;12.75;7.72;;;13.20;99.90;;;;;;5039253;28;20060;-67
2022/06/01 07:43:55;;;;;;;11.23;7.65;;;13.30;99.90;;;;;;5016706;28;20123;-67
2022/06/01 07:46:20;;;;;;;10.83;7.77;;;13.30;99.90;;;;;;5021897;28;20075;-67
2022/06/01 07:48:47;;;;;;;11.27;7.10;;;13.30;99.90;;;;;;5040589;28;20319;-67
2022/06/01 07:51:13;;;;;;;11.48;6.85;;;13.30;99.90;;;;;;5043356;28;20037;-66
2022/06/01 07:53:39;;;;;;;12.63;7.15;;;13.30;99.90;;;;;;5027003;28;20515;-67
2022/06/01 07:56:05;;;;;;;10.05;7.32;;;13.40;99.90;;;;;;5039169;28;20075;-67
2022/06/01 07:58:30;;;;;;;9.77;6.60;;;13.50;99.90;;;;;;5029051;28;20598;-67
2022/06/01 08:00:56;;;;;;;9.37;6.63;;;13.50;99.90;;;;;;5029825;28;20509;-67
2022/06/01 08:03:22;;;;;;;9.82;6.82;;;13.60;99.90;;;;;;5043085;28;20043;-66
2022/06/01 08:05:47;;;;;;;9.35;6.65;;;13.60;99.90;;;;;;5022467;28;20045;-67
2022/06/01 08:08:13;;;;;;;11.20;7.27;;;13.60;99.90;;;;;;5049878;28;20048;-67
2022/06/01 08:10:39;;;;;;;8.23;6.18;;;13.70;99.90;;;;;;5046990;28;20287;-66
2022/06/01 08:13:10;;;;;;;10.60;6.00;;;13.60;99.90;;;;;;4990334;28;20128;-66
2022/06/01 08:15:44;;;;;;;9.88;6.65;;;13.60;99.90;;;;;;5042766;28;20069;-66
2022/06/01 08:18:12;;;;;;;8.93;5.57;;;13.60;99.90;;;;;;5039795;28;20049;-67
2022/06/01 08:20:39;;;;;;;8.73;5.50;;;13.70;99.90;;;;;;5046417;28;20044;-67
2022/06/01 08:23:05;;;;;;;;;;;13.60;99.90;;;;;;5026878;28;20045;-66
2022/06/01 08:25:31;;;;;;;9.95;5.88;;;13.70;99.90;;;;;;5015189;28;19975;-67
2022/06/01 08:27:57;;;;;;;8.65;5.43;;;13.80;99.90;;;;;;5020836;28;20072;-66
2022/06/01 08:30:24;;;;;;;6.68;4.30;;;13.80;99.90;;;;;;5023235;28;20101;-67
2022/06/01 08:32:51;;;;;;;7.30;3.88;;;13.90;99.90;;;;;;5040210;28;20041;-66
2022/06/01 08:35:20;;;;;;;7.47;4.15;;;13.90;99.90;;;;;;5023350;28;20033;-66
2022/06/01 08:37:47;;;;;;;6.68;3.75;;;13.90;99.90;;;;;;5024801;28;20040;-67
2022/06/01 08:40:15;;;;;;;6.03;4.05;;;14.00;99.90;;;;;;5042900;28;20072;-67
2022/06/01 08:42:52;;;;;;;8.02;4.88;;;14.00;99.90;;;;;;5035212;28;20033;-67
2022/06/01 08:45:21;;;;;;;8.65;4.45;;;14.10;99.90;;;;;;5038016;28;20049;-67
2022/06/01 08:47:47;;;;;;;8.48;4.28;;;14.00;99.90;;;;;;5016950;28;20539;-67
2022/06/01 08:50:27;;;;;;;7.05;4.25;;;14.10;99.90;;;;;;5020288;28;20048;-67
2022/06/01 08:52:56;;;;;;;6.90;4.28;;;14.20;99.90;;;;;;5044746;28;20113;-67
2022/06/01 08:55:23;;;;;;;7.55;3.88;;;14.20;99.90;;;;;;5035153;28;20052;-67
2022/06/01 08:58:04;;;;;;;5.93;4.07;;;14.30;99.90;;;;;;5033521;28;20041;-66
2022/06/01 09:00:33;;;;;;;5.10;3.55;;;14.40;99.90;;;;;;5045132;28;20044;-67
2022/06/01 09:03:23;;;;;;;9.57;3.63;;;14.50;99.90;;;;;;4998882;28;20041;-67
2022/06/01 09:05:52;;;;;;;4.95;3.38;;;14.50;99.90;;;;;;5038499;28;20115;-67
2022/06/01 09:08:47;;;;;;;4.90;3.55;;;14.60;99.90;;;;;;5027932;28;20109;-67
2022/06/01 09:11:18;;;;;;;6.65;3.47;;;14.50;99.90;;;;;;5028028;28;20083;-66
2022/06/01 09:13:44;;;;;;;4.38;3.05;;;14.40;99.90;;;;;;5018214;28;20481;-67
2022/06/01 09:16:17;;;;;;;5.23;3.63;;;14.40;99.90;;;;;;5017828;28;20037;-67
2022/06/01 09:18:52;;;;;;;5.78;3.72;;;14.40;99.90;;;;;;5017829;28;20127;-67
2022/06/01 09:24:34;;;;;;;4.00;2.80;;;14.40;99.90;;;;;;5037768;28;20136;-66
2022/06/01 09:27:22;;;;;;;5.38;3.58;;;14.50;99.90;;;;;;5035883;28;20041;-67
2022/06/01 09:29:50;;;;;;;5.88;3.78;;;14.60;99.90;;;;;;5042075;28;20060;-67
2022/06/01 09:32:36;;;;;;;5.38;3.13;;;14.70;99.90;;;;;;5021802;28;20312;-67
2022/06/01 09:35:10;;;;;;;4.68;2.42;;;14.70;99.90;;;;;;5025419;28;20041;-67
2022/06/01 09:37:46;;;;;;;4.10;2.92;;;14.80;99.90;;;;;;5025586;28;20317;-66
2022/06/01 09:40:28;;;;;;;4.18;3.00;;;14.70;99.90;;;;;;5021276;28;20037;-66
2022/06/01 09:42:55;;;;;;;5.03;2.75;;;14.70;99.90;;;;;;5013349;28;20041;-66
2022/06/01 09:45:26;;;;;;;4.38;2.83;;;14.80;99.90;;;;;;5022662;28;20106;-67
2022/06/01 09:47:53;;;;;;;5.93;2.58;;;14.70;99.90;;;;;;5032058;28;20036;-66
2022/06/01 09:50:24;;;;;;;3.50;2.30;;;14.70;99.90;;;;;;5044773;28;20041;-67
2022/06/01 09:52:59;;;;;;;3.40;2.28;;;14.60;99.90;;;;;;5043552;28;20037;-67
2022/06/01 09:55:26;;;;;;;2.17;1.58;;;14.60;99.90;;;;;;5020389;28;20090;-66
2022/06/01 09:58:09;;;;;;;3.33;1.92;;;14.60;99.90;;;;;;5015663;28;20076;-67
2022/06/01 10:06:25;;;;;;;3.40;2.10;;;14.30;99.90;;;;;;5022845;28;20045;-67
2022/06/01 10:09:08;;;;;;;3.67;2.63;;;14.10;99.90;;;;;;5037225;28;20055;-66
2022/06/01 10:11:44;;;;;;;5.03;2.35;;;14.00;99.90;;;;;;5037863;28;20053;-66
2022/06/01 10:14:16;;;;;;;4.37;2.60;;;13.90;99.90;;;;;;5012734;28;20040;-67
2022/06/01 10:17:01;;;;;;;3.53;2.15;;;13.80;99.90;;;;;;5019904;28;20057;-67
2022/06/01 10:20:08;;;;;;;3.10;1.90;;;13.80;99.90;;;;;;5043877;28;20040;-67
2022/06/01 10:22:36;;;;;;;4.70;1.93;;;13.80;99.90;;;;;;4985211;28;20110;-67
2022/06/01 10:25:47;;;;;;;3.72;1.90;;;13.70;99.90;;;;;;5018542;28;20057;-66
2022/06/01 10:28:21;;;;;;;3.63;2.25;;;13.70;99.90;;;;;;5034241;28;20045;-66
2022/06/01 10:30:51;;;;;;;3.33;2.20;;;13.70;99.90;;;;;;5036817;28;20043;-66
2022/06/01 10:33:24;;;;;;;3.10;2.08;;;13.70;99.90;;;;;;5022518;28;20047;-67
2022/06/01 10:36:01;;;;;;;3.30;1.90;;;13.70;99.90;;;;;;5008751;28;20167;-67
2022/06/01 10:38:47;;;;;;;1.83;1.30;;;13.70;99.90;;;;;;5036691;28;20294;-67
2022/06/01 10:41:22;;;;;;;2.40;1.40;;;13.70;99.90;;;;;;5023171;28;20044;-67
2022/06/01 10:44:14;;;;;;;1.83;1.20;;;13.80;99.90;;;;;;5019842;28;20037;-67
2022/06/01 10:47:01;;;;;;;2.38;1.23;;;13.80;99.90;;;;;;5032680;28;20183;-67
2022/06/01 10:49:59;;;;;;;1.90;0.95;;;14.00;99.90;;;;;;5028360;28;20037;-67
2022/06/01 10:52:34;;;;;;;0.52;0.40;;;14.10;99.90;;;;;;5034008;28;20501;-67
2022/06/01 10:55:19;;;;;;;1.05;0.40;;;14.30;99.90;;;;;;5040257;28;20061;-67
2022/06/01 10:57:48;;;;;;;1.52;0.40;;;14.50;99.90;;;;;;5040022;28;20056;-67
2022/06/01 11:00:21;;;;;;;0.63;0.30;;;14.60;99.90;;;;;;5049721;28;20048;-67
2022/06/01 11:03:37;;;;;;;2.70;0.40;;;14.60;99.90;;;;;;5012699;28;20041;-67
2022/06/01 11:06:14;;;;;;;0.50;0.47;;;14.70;99.90;;;;;;4981009;28;20186;-67
2022/06/01 11:09:02;;;;;;;1.65;0.90;;;14.80;99.90;;;;;;5046182;28;20469;-67
2022/06/01 11:11:39;;;;;;;1.13;0.70;;;15.00;99.90;;;;;;5022903;28;20049;-67
2022/06/01 11:14:20;;;;;;;1.83;1.00;;;15.30;99.90;;;;;;5035453;28;20048;-67
2022/06/01 11:17:02;;;;;;;3.22;1.35;;;15.40;99.90;;;;;;5039934;28;20041;-66
2022/06/01 11:20:06;;;;;;;3.28;1.92;;;15.50;99.90;;;;;;5042734;28;20053;-66
2022/06/01 11:22:46;;;;;;;3.13;1.65;;;15.40;99.90;;;;;;5045104;28;20044;-66
2022/06/01 11:25:40;;;;;;;2.75;1.50;;;15.40;99.90;;;;;;5034187;28;20133;-67
2022/06/01 11:28:32;;;;;;;3.88;1.20;;;15.20;99.90;;;;;;5025568;28;20045;-66
2022/06/01 11:31:01;;;;;;;3.65;1.30;;;15.00;99.90;;;;;;5031260;28;20144;-67
2022/06/01 11:33:52;;;;;;;1.58;0.70;;;14.80;99.90;;;;;;5038689;28;20032;-67
2022/06/01 11:36:44;;;;;;;1.48;0.80;;;14.60;99.90;;;;;;5009959;28;20045;-68
2022/06/01 11:39:23;;;;;;;3.10;0.70;;;14.40;99.90;;;;;;5037284;28;20167;-68
2022/06/01 11:41:57;;;;;;;1.40;0.70;;;14.30;99.90;;;;;;5039977;28;20032;-68
2022/06/01 11:44:33;;;;;;;1.52;0.70;;;14.00;99.90;;;;;;5004095;28;20029;-68
2022/06/01 11:47:09;;;;;;;2.08;0.70;;;13.80;99.90;;;;;;5018616;28;20044;-68
2022/06/01 11:49:39;;;;;;;1.42;0.60;;;13.60;99.90;;;;;;5024091;28;20029;-68
2022/06/01 11:52:23;;;;;;;1.75;0.80;;;13.50;99.90;;;;;;5028016;28;20094;-68
2022/06/01 11:55:11;;;;;;;2.30;1.23;;;13.30;99.90;;;;;;5026087;28;21382;-68
2022/06/01 11:58:03;;;;;;;1.42;0.75;;;13.20;99.90;;;;;;5040425;28;20072;-68
2022/06/01 12:00:37;;;;;;;3.35;0.93;;;13.10;99.90;;;;;;5030149;28;20516;-68
2022/06/01 12:03:24;;;;;;;1.98;0.70;;;13.00;99.90;;;;;;5027316;28;20049;-67
2022/06/01 12:06:04;;;;;;;1.08;0.80;;;13.00;99.90;;;;;;5034359;28;20049;-67
2022/06/01 12:08:50;;;;;;;1.70;0.82;;;13.00;99.90;;;;;;5046173;28;20080;-67
2022/06/01 12:11:41;;;;;;;1.63;0.90;;;13.00;99.90;;;;;;5022956;28;20059;-67
2022/06/01 12:14:30;;;;;;;1.48;0.85;;;12.80;99.90;;;;;;4994773;28;20037;-67
2022/06/01 12:17:16;;;;;;;1.30;0.80;;;12.80;99.90;;;;;;5029488;28;20387;-67
2022/06/01 12:19:45;;;;;;;1.02;0.77;;;12.80;99.90;;;;;;5014046;28;20052;-67
2022/06/01 12:30:53;;;;;;;1.38;1.08;;;12.70;99.90;;;;;;5028946;28;21110;-67
2022/06/01 12:33:19;;;;;;;1.85;1.15;;;12.70;99.90;;;;;;5043729;28;20121;-67
2022/06/01 12:35:54;;;;;;;1.92;1.35;;;12.80;99.90;;;;;;5026519;28;20045;-67
2022/06/01 12:38:34;;;;;;;2.13;1.20;;;12.90;99.90;;;;;;5029498;28;20045;-67
2022/06/01 12:41:17;;;;;;;2.17;1.33;;;13.20;99.90;;;;;;5025501;28;20040;-67
2022/06/01 12:43:54;;;;;;;2.78;1.35;;;13.50;99.90;;;;;;5014654;28;20084;-67
2022/06/01 12:46:24;;;;;;;3.40;1.50;;;13.80;99.90;;;;;;5019937;28;20042;-67
2022/06/01 12:48:49;;;;;;;2.00;1.48;;;13.90;99.90;;;;;;5030074;28;20041;-68
2022/06/01 12:51:16;;;;;;;6.20;1.65;;;14.00;99.90;;;;;;5043020;28;20586;-70
2022/06/01 12:53:49;;;;;;;2.58;1.48;;;14.00;99.90;;;;;;5046386;28;20102;-70
2022/06/01 12:56:19;;;;;;;2.38;1.73;;;13.90;99.90;;;;;;5022921;28;20248;-67
2022/06/01 12:58:47;;;;;;;2.75;1.67;;;14.00;99.90;;;;;;5019379;28;20063;-67
2022/06/01 13:01:18;;;;;;;3.88;1.92;;;14.00;99.90;;;;;;5027264;28;20045;-67
2022/06/01 13:03:46;;;;;;;3.15;1.75;;;14.00;99.90;;;;;;5044913;28;20048;-67
2022/06/01 13:06:18;;;;;;;3.28;1.58;;;14.20;99.90;;;;;;5021537;28;20141;-67
2022/06/01 13:08:43;;;;;;;2.30;1.55;;;14.40;99.90;;;;;;5028202;28;20051;-67
2022/06/01 13:11:30;;;;;;;2.28;1.30;;;14.60;99.90;;;;;;5046606;28;20544;-67
2022/06/01 13:14:00;;;;;;;3.17;1.63;;;14.80;99.90;;;;;;5022952;28;20084;-67
2022/06/01 13:16:37;;;;;;;2.55;1.38;;;15.00;99.90;;;;;;5031468;28;20029;-67
2022/06/01 13:19:27;;;;;;;2.47;1.27;;;15.30;99.90;;;;;;5041346;28;20339;-67
2022/06/01 13:22:19;;;;;;;1.88;1.15;;;15.50;99.90;;;;;;5024912;28;20040;-67
2022/06/01 13:24:49;;;;;;;1.75;1.15;;;15.70;99.90;;;;;;5032511;28;20037;-67
2022/06/01 13:27:16;;;;;;;1.63;1.00;;;15.90;99.90;;;;;;5037323;28;20639;-67
2022/06/01 13:30:21;;;;;;;1.30;1.00;;;15.90;99.90;;;;;;5064252;23;20059;-85
2022/06/01 13:32:57;;;;;;;2.35;1.17;;;16.00;99.90;;;;;;5017288;28;20140;-86
2022/06/01 13:36:01;;;;;;;1.40;1.00;;;16.00;99.90;;;;;;5066424;28;20513;-87
2022/06/01 13:42:03;;;;;;;1.35;0.88;;;15.80;99.90;;;;;;5043284;28;20047;-86
2022/06/01 13:47:31;;;;;;;2.17;1.33;;;15.30;99.90;;;;;;5068239;28;20051;-70